MPH8437 EHAM-LSGG
Flight info
| Callsign | MPH8437 |
|---|---|
| Flight time | N/A |
| Altitude | 33000 |
| Route | EDUPO Z739 MISGO DCT ASBON DCT TUSUK DCT KRH/N0484F320 DCT NATOR/N0483F330 DCT LUTIX DCT BENOT |
| Aircraft | MD11/H-SDE1E2E3FGHIJ2J3J4J5M1RWXY/LB1D1 |
Departure
| Time | 2026-05-04 17:38 |
|---|---|
| Airport | Amsterdam Airport Schiphol (EHAM) |
Arrival
| Time | N/A |
|---|---|
| Airport | Geneva International Airport (LSGG) |
| Time | Latitude | Longitude | Altitude | Speed | Heading |
|---|---|---|---|---|---|
| 2026-05-04 17:21 | 52.29487 | 4.76106 | 8 ft | 0 kts | 148° |
| 2026-05-04 17:28 | 52.29499 | 4.76094 | 8 ft | 4 kts | 150° |
| 2026-05-04 17:29 | 52.29569 | 4.76067 | 7 ft | 4 kts | 219° |
| 2026-05-04 17:29 | 52.29575 | 4.76076 | 7 ft | 0 kts | 238° |
| 2026-05-04 17:31 | 52.29516 | 4.75903 | 8 ft | 19 kts | 248° |
| 2026-05-04 17:32 | 52.29450 | 4.75543 | 8 ft | 10 kts | 307° |
| 2026-05-04 17:33 | 52.29689 | 4.75296 | 6 ft | 17 kts | 328° |
| 2026-05-04 17:33 | 52.29808 | 4.75243 | 8 ft | 17 kts | 335° |
| 2026-05-04 17:34 | 52.30100 | 4.74720 | 11 ft | 22 kts | 311° |
| 2026-05-04 17:34 | 52.30196 | 4.74541 | 17 ft | 21 kts | 311° |
| 2026-05-04 17:35 | 52.30351 | 4.74087 | 8 ft | 12 kts | 238° |
| 2026-05-04 17:35 | 52.30205 | 4.73890 | 7 ft | 15 kts | 227° |
| 2026-05-04 17:35 | 52.30201 | 4.73763 | 5 ft | 9 kts | 307° |
| 2026-05-04 17:36 | 52.30266 | 4.73742 | 4 ft | 12 kts | 2° |
| 2026-05-04 17:36 | 52.30319 | 4.73747 | 3 ft | 0 kts | 4° |
| 2026-05-04 17:37 | 52.30395 | 4.73756 | 4 ft | 42 kts | 4° |
| 2026-05-04 17:37 | 52.30986 | 4.73809 | 7 ft | 125 kts | 3° |
| 2026-05-04 17:37 | 52.32060 | 4.73918 | 139 ft | 170 kts | 2° |
| 2026-05-04 17:38 | 52.33214 | 4.74017 | 1121 ft | 163 kts | 4° |
| 2026-05-04 17:38 | 52.34429 | 4.74176 | 1623 ft | 194 kts | 9° |
| 2026-05-04 17:38 | 52.35812 | 4.74932 | 1802 ft | 225 kts | 27° |
| 2026-05-04 17:38 | 52.37221 | 4.76337 | 1984 ft | 248 kts | 36° |
| 2026-05-04 17:39 | 52.39798 | 4.80295 | 3366 ft | 261 kts | 44° |
| 2026-05-04 17:39 | 52.41071 | 4.82466 | 4109 ft | 266 kts | 49° |
| 2026-05-04 17:39 | 52.42056 | 4.85051 | 4856 ft | 272 kts | 70° |
| 2026-05-04 17:40 | 52.42408 | 4.88106 | 5552 ft | 280 kts | 85° |
| 2026-05-04 17:40 | 52.42473 | 4.91349 | 6256 ft | 286 kts | 89° |
| 2026-05-04 17:40 | 52.42453 | 4.94611 | 7033 ft | 288 kts | 94° |
| 2026-05-04 17:40 | 52.42050 | 4.97831 | 7765 ft | 289 kts | 114° |
| 2026-05-04 17:41 | 52.40944 | 5.00543 | 8554 ft | 287 kts | 137° |
| 2026-05-04 17:41 | 52.39398 | 5.02641 | 9277 ft | 290 kts | 145° |
| 2026-05-04 17:41 | 52.37741 | 5.04549 | 10022 ft | 293 kts | 147° |
| 2026-05-04 17:41 | 52.36001 | 5.06499 | 10268 ft | 316 kts | 147° |
| 2026-05-04 17:42 | 52.34157 | 5.08607 | 10396 ft | 339 kts | 143° |
| 2026-05-04 17:42 | 52.32345 | 5.11266 | 10608 ft | 359 kts | 135° |
| 2026-05-04 17:42 | 52.30625 | 5.14265 | 11283 ft | 364 kts | 133° |
| 2026-05-04 17:42 | 52.28928 | 5.17374 | 11996 ft | 368 kts | 132° |
| 2026-05-04 17:43 | 52.27222 | 5.20536 | 12636 ft | 374 kts | 133° |
| 2026-05-04 17:43 | 52.25487 | 5.23745 | 13323 ft | 379 kts | 132° |
| 2026-05-04 17:43 | 52.23793 | 5.27073 | 13944 ft | 385 kts | 129° |
| 2026-05-04 17:43 | 52.22185 | 5.30617 | 14520 ft | 390 kts | 126° |
| 2026-05-04 17:44 | 52.20621 | 5.34238 | 15212 ft | 391 kts | 126° |
| 2026-05-04 17:44 | 52.19057 | 5.37908 | 15826 ft | 395 kts | 126° |
| 2026-05-04 17:44 | 52.17481 | 5.41603 | 16460 ft | 399 kts | 126° |
| 2026-05-04 17:44 | 52.15889 | 5.45316 | 17133 ft | 401 kts | 126° |
| 2026-05-04 17:45 | 52.14288 | 5.49029 | 17830 ft | 402 kts | 126° |
| 2026-05-04 17:45 | 52.12662 | 5.52787 | 18392 ft | 407 kts | 126° |
| 2026-05-04 17:45 | 52.11028 | 5.56551 | 18981 ft | 408 kts | 126° |
| 2026-05-04 17:45 | 52.09383 | 5.60333 | 19544 ft | 410 kts | 126° |
| 2026-05-04 17:46 | 52.07731 | 5.64123 | 20127 ft | 412 kts | 126° |
| 2026-05-04 17:46 | 52.05998 | 5.67846 | 20675 ft | 414 kts | 130° |
| 2026-05-04 17:46 | 52.04183 | 5.71385 | 21209 ft | 416 kts | 131° |
| 2026-05-04 17:46 | 52.02278 | 5.74948 | 21750 ft | 418 kts | 132° |
| 2026-05-04 17:47 | 52.00331 | 5.78544 | 22294 ft | 420 kts | 133° |
| 2026-05-04 17:47 | 51.98398 | 5.82113 | 22812 ft | 423 kts | 133° |
| 2026-05-04 17:47 | 51.96474 | 5.85672 | 23337 ft | 425 kts | 133° |
| 2026-05-04 17:47 | 51.94523 | 5.89295 | 23793 ft | 428 kts | 133° |
| 2026-05-04 17:48 | 51.92564 | 5.92942 | 24215 ft | 430 kts | 133° |
| 2026-05-04 17:48 | 51.90595 | 5.96607 | 24637 ft | 432 kts | 133° |
| 2026-05-04 17:48 | 51.88614 | 6.00296 | 25041 ft | 435 kts | 134° |
| 2026-05-04 17:48 | 51.86625 | 6.03997 | 25454 ft | 437 kts | 134° |
| 2026-05-04 17:49 | 51.84613 | 6.07715 | 25861 ft | 440 kts | 134° |
| 2026-05-04 17:49 | 51.82588 | 6.11437 | 26265 ft | 443 kts | 135° |
| 2026-05-04 17:49 | 51.80544 | 6.15187 | 26668 ft | 445 kts | 135° |
| 2026-05-04 17:49 | 51.78489 | 6.18953 | 27076 ft | 448 kts | 135° |
| 2026-05-04 17:50 | 51.76423 | 6.22733 | 27468 ft | 451 kts | 135° |
| 2026-05-04 17:50 | 51.74336 | 6.26540 | 27829 ft | 453 kts | 135° |
| 2026-05-04 17:50 | 51.72237 | 6.30365 | 28213 ft | 456 kts | 136° |
| 2026-05-04 17:50 | 51.70124 | 6.34212 | 28491 ft | 460 kts | 136° |
| 2026-05-04 17:51 | 51.67997 | 6.38082 | 28830 ft | 463 kts | 136° |
| 2026-05-04 17:51 | 51.65855 | 6.41975 | 29195 ft | 465 kts | 136° |
| 2026-05-04 17:51 | 51.63700 | 6.45885 | 29553 ft | 468 kts | 136° |
| 2026-05-04 17:51 | 51.61563 | 6.49755 | 29889 ft | 470 kts | 136° |
| 2026-05-04 17:52 | 51.59390 | 6.53690 | 30227 ft | 472 kts | 136° |
| 2026-05-04 17:52 | 51.57203 | 6.57649 | 30542 ft | 474 kts | 136° |
| 2026-05-04 17:52 | 51.55010 | 6.61615 | 30865 ft | 475 kts | 136° |
| 2026-05-04 17:52 | 51.52816 | 6.65581 | 31251 ft | 474 kts | 136° |
| 2026-05-04 17:53 | 51.50657 | 6.69481 | 31626 ft | 473 kts | 137° |
| 2026-05-04 17:53 | 51.48474 | 6.73417 | 32009 ft | 471 kts | 137° |
| 2026-05-04 17:53 | 51.46294 | 6.77339 | 32388 ft | 470 kts | 137° |
| 2026-05-04 17:53 | 51.44119 | 6.81247 | 32786 ft | 469 kts | 137° |
| 2026-05-04 17:54 | 51.41931 | 6.85114 | 32964 ft | 470 kts | 140° |
| 2026-05-04 17:54 | 51.39494 | 6.88597 | 33011 ft | 467 kts | 148° |
| 2026-05-04 17:54 | 51.38236 | 6.90071 | 33008 ft | 466 kts | 150° |